createdAt,value
2019-05-16T00:09:01.035Z,97.10
2019-05-16T00:31:15.049Z,98.10
2019-05-16T01:02:28.667Z,97.00
2019-05-16T01:11:24.122Z,97.60
2019-05-16T01:14:02.222Z,98.40
2019-05-16T01:16:34.999Z,98.10
2019-05-16T01:19:08.908Z,98.10
2019-05-16T01:21:41.900Z,97.40
2019-05-16T01:24:18.636Z,97.80
2019-05-16T01:26:55.239Z,97.80
2019-05-16T01:29:29.152Z,97.80
2019-05-16T01:32:22.111Z,97.10
2019-05-16T01:38:19.688Z,96.30
2019-05-16T01:41:37.811Z,96.50
2019-05-16T02:00:00.059Z,97.00
2019-05-16T02:02:33.966Z,96.90
2019-05-16T02:05:08.674Z,96.30
2019-05-16T02:07:41.600Z,97.30
2019-05-16T02:10:17.888Z,97.60
2019-05-16T02:12:49.902Z,97.80
2019-05-16T02:15:23.197Z,97.50
2019-05-16T02:17:58.541Z,97.60
2019-05-16T02:20:30.088Z,97.30
2019-05-16T02:23:03.075Z,98.20
2019-05-16T02:25:40.521Z,98.40
2019-05-16T02:28:11.503Z,98.60
2019-05-16T02:30:45.411Z,98.10
2019-05-16T02:33:20.923Z,98.00
2019-05-16T02:35:55.691Z,98.10
2019-05-16T02:38:27.749Z,98.20
2019-05-16T02:41:03.067Z,98.00
2019-05-16T02:43:35.737Z,97.40
2019-05-16T02:46:11.644Z,96.90
2019-05-16T02:48:44.732Z,97.10
2019-05-16T02:51:20.939Z,98.00
2019-05-16T02:53:51.628Z,98.30
2019-05-16T02:56:24.791Z,97.60
2019-05-16T02:59:16.824Z,98.00
2019-05-16T03:01:52.153Z,97.40
2019-05-16T03:04:44.583Z,96.90
2019-05-16T03:10:20.372Z,96.30
2019-05-16T03:15:56.497Z,97.80
2019-05-16T03:24:42.227Z,98.80
2019-05-16T03:44:57.973Z,97.20
2019-05-16T03:47:34.044Z,97.20
2019-05-16T04:00:51.274Z,99.70
2019-05-16T04:10:45.344Z,97.80
2019-05-16T04:13:21.399Z,98.40
2019-05-16T04:22:45.113Z,96.90
2019-05-16T04:31:56.691Z,96.90
2019-05-16T04:37:42.856Z,97.70
2019-05-16T04:40:17.912Z,97.60
2019-05-16T04:59:32.345Z,97.60
2019-05-16T05:02:06.069Z,97.90
2019-05-16T05:04:41.385Z,98.00
2019-05-16T05:07:12.966Z,97.50
2019-05-16T05:09:46.130Z,97.10
2019-05-16T05:12:20.747Z,96.70
2019-05-16T05:14:54.265Z,96.40
2019-05-16T05:17:30.415Z,95.80
2019-05-16T05:20:01.453Z,96.10
2019-05-16T05:22:34.438Z,96.00
2019-05-16T05:25:10.914Z,95.80
2019-05-16T05:27:44.531Z,95.50
2019-05-16T05:30:19.804Z,95.60
2019-05-16T05:32:53.335Z,95.30
2019-05-16T05:35:25.818Z,95.50
2019-05-16T05:38:00.410Z,96.10
2019-05-16T05:40:33.182Z,95.90
2019-05-16T05:43:06.004Z,95.50
2019-05-16T05:45:40.158Z,95.10
2019-05-16T05:48:12.898Z,95.10
2019-05-16T05:50:45.088Z,94.60
2019-05-16T05:53:20.818Z,94.00
2019-05-16T05:55:52.903Z,92.80
2019-05-16T05:58:26.377Z,91.20
2019-05-16T06:01:00.657Z,91.10
2019-05-16T06:03:33.720Z,91.10
2019-05-16T06:06:06.676Z,91.00
2019-05-16T06:08:40.895Z,91.70
2019-05-16T06:11:13.583Z,91.60
2019-05-16T06:13:46.574Z,92.40
2019-05-16T06:16:20.358Z,91.80
2019-05-16T06:18:53.460Z,91.50
2019-05-16T06:21:26.630Z,91.20
2019-05-16T06:23:59.908Z,91.70
2019-05-16T06:26:33.520Z,91.70
2019-05-16T06:29:10.321Z,91.30
2019-05-16T06:31:41.950Z,91.40
2019-05-16T06:34:15.401Z,91.10
2019-05-16T06:36:48.048Z,91.00
2019-05-16T06:39:21.830Z,90.10
2019-05-16T06:41:54.939Z,89.10
2019-05-16T06:44:30.670Z,89.40
2019-05-16T06:47:15.792Z,88.50
2019-05-16T06:49:40.169Z,87.10
2019-05-16T06:52:13.209Z,87.00
2019-05-16T06:54:46.501Z,86.40
2019-05-16T06:57:20.734Z,90.60
2019-05-16T06:59:53.395Z,87.20
2019-05-16T07:02:31.588Z,85.60
2019-05-16T07:05:05.420Z,87.00
2019-05-16T07:10:31.142Z,86.00
2019-05-16T07:13:06.894Z,84.90
2019-05-16T07:15:44.493Z,84.50
2019-05-16T07:18:20.740Z,84.20
2019-05-16T07:20:52.916Z,85.30
2019-05-16T07:23:25.289Z,84.60
2019-05-16T07:26:00.795Z,86.10
2019-05-16T07:28:33.410Z,87.20
2019-05-16T07:31:17.588Z,86.00
2019-05-16T07:33:44.604Z,82.20
2019-05-16T07:36:17.588Z,84.60
2019-05-16T07:38:51.652Z,84.70
2019-05-16T07:41:27.679Z,82.80
2019-05-16T07:44:01.105Z,82.70
2019-05-16T07:46:35.370Z,80.70
2019-05-16T07:49:11.154Z,80.20
2019-05-16T07:51:42.398Z,85.10
2019-05-16T07:54:15.863Z,84.90
2019-05-16T07:56:57.306Z,84.30
2019-05-16T07:59:23.063Z,82.80
2019-05-16T08:01:56.048Z,82.60
2019-05-16T08:04:53.625Z,82.80
2019-05-16T08:07:54.017Z,79.40
2019-05-16T08:15:37.194Z,76.20
2019-05-16T08:18:11.219Z,75.20
2019-05-16T08:20:44.098Z,78.10
2019-05-16T08:23:21.371Z,75.60
2019-05-16T08:25:51.719Z,74.90
2019-05-16T08:28:26.117Z,75.00
2019-05-16T08:31:00.924Z,75.00
2019-05-16T08:33:53.506Z,75.70
2019-05-16T08:36:42.258Z,72.20
2019-05-16T08:39:14.441Z,73.20
2019-05-16T08:41:51.583Z,71.50
2019-05-16T08:44:22.739Z,60.90
2019-05-16T08:46:58.133Z,62.20
2019-05-16T08:49:31.836Z,62.00
2019-05-16T08:50:10.976Z,78.10
2019-05-16T08:50:11.202Z,73.90
2019-05-16T08:52:05.383Z,63.50
2019-05-16T08:54:42.980Z,61.50
2019-05-16T08:57:27.605Z,63.10
2019-05-16T09:02:52.040Z,60.70
2019-05-16T09:05:23.250Z,66.00
2019-05-16T09:08:00.622Z,65.30
2019-05-16T09:10:59.963Z,61.90
2019-05-16T09:13:07.172Z,62.80
2019-05-16T09:15:39.428Z,63.80
2019-05-16T09:18:12.411Z,61.50
2019-05-16T09:20:46.012Z,64.50
2019-05-16T09:23:19.305Z,63.10
2019-05-16T09:25:52.906Z,65.00
2019-05-16T09:28:28.312Z,63.50
2019-05-16T09:31:00.104Z,61.40
2019-05-16T09:33:33.090Z,63.80
2019-05-16T09:36:08.031Z,63.90
2019-05-16T09:38:42.450Z,64.10
2019-05-16T09:41:16.922Z,64.60
2019-05-16T09:43:50.870Z,64.10
2019-05-16T09:46:24.470Z,63.10
2019-05-16T09:49:15.925Z,64.30
2019-05-16T09:51:32.285Z,63.70
2019-05-16T09:54:07.047Z,63.90
2019-05-16T09:56:40.099Z,63.20
2019-05-16T09:59:14.007Z,62.50
2019-05-16T10:01:48.049Z,59.40
2019-05-16T10:04:21.640Z,62.00
2019-05-16T10:06:57.014Z,59.80
2019-05-16T10:09:41.401Z,61.00
2019-05-16T10:12:11.345Z,61.70
2019-05-16T10:14:38.680Z,56.40
2019-05-16T10:17:12.587Z,61.60
2019-05-16T10:19:47.515Z,58.90
2019-05-16T10:22:21.016Z,62.80
2019-05-16T10:24:57.134Z,62.80
2019-05-16T10:27:30.038Z,63.20
2019-05-16T10:30:04.102Z,62.50
2019-05-16T10:32:39.816Z,61.60
2019-05-16T10:35:13.317Z,64.40
2019-05-16T10:37:47.119Z,59.20
2019-05-16T10:40:20.210Z,59.40
2019-05-16T10:42:53.698Z,59.20
2019-05-16T10:45:27.351Z,61.00
2019-05-16T10:48:00.587Z,62.30
2019-05-16T10:50:33.407Z,62.40
2019-05-16T10:53:25.744Z,64.20
2019-05-16T10:55:40.275Z,61.80
2019-05-16T10:58:13.262Z,63.10
2019-05-16T11:01:09.933Z,64.20
2019-05-16T11:03:22.622Z,60.50
2019-05-16T11:06:05.292Z,60.50
2019-05-16T11:08:31.041Z,63.20
2019-05-16T11:11:06.700Z,61.60
2019-05-16T11:13:38.060Z,59.00
2019-05-16T11:16:11.841Z,61.30
2019-05-16T11:18:44.827Z,60.30
2019-05-16T11:21:19.277Z,59.90
2019-05-16T11:23:51.848Z,63.50
2019-05-16T11:26:24.092Z,62.90
2019-05-16T11:28:57.816Z,60.10
2019-05-16T11:31:30.985Z,60.30
2019-05-16T11:34:04.719Z,57.20
2019-05-16T11:36:38.187Z,57.90
2019-05-16T11:39:11.606Z,60.80
2019-05-16T11:41:47.340Z,58.40
2019-05-16T11:44:19.292Z,57.80
2019-05-16T11:46:52.405Z,55.40
2019-05-16T11:49:27.536Z,58.50
2019-05-16T11:52:00.234Z,57.20
2019-05-16T11:54:33.693Z,57.70
2019-05-16T11:57:08.521Z,57.10
2019-05-16T12:00:30.166Z,58.30
2019-05-16T12:03:20.038Z,57.10
2019-05-16T12:05:57.972Z,57.50
2019-05-16T12:08:33.272Z,57.90
2019-05-16T12:11:07.203Z,56.50
2019-05-16T12:13:47.623Z,52.30
2019-05-16T12:16:21.139Z,53.70
2019-05-16T12:18:57.054Z,53.80
2019-05-16T12:21:29.260Z,51.70
2019-05-16T12:24:02.681Z,54.20
2019-05-16T12:29:31.574Z,51.70
2019-05-16T12:32:23.903Z,58.20
2019-05-16T12:35:06.723Z,54.90
2019-05-16T12:40:43.007Z,55.90
2019-05-16T12:43:44.214Z,57.20
2019-05-16T12:46:08.430Z,54.90
2019-05-16T12:51:36.985Z,50.80
2019-05-16T12:57:11.368Z,52.00
2019-05-16T12:59:50.021Z,51.00
2019-05-16T13:02:21.763Z,53.70
2019-05-16T13:04:57.394Z,52.90
2019-05-16T13:07:29.146Z,54.40
2019-05-16T13:10:01.644Z,54.30
2019-05-16T13:12:33.889Z,52.10
2019-05-16T13:15:07.615Z,52.10
2019-05-16T13:17:40.796Z,52.10
2019-05-16T13:20:14.507Z,51.40
2019-05-16T13:22:47.676Z,52.60
2019-05-16T13:25:21.403Z,51.40
2019-05-16T13:27:54.569Z,52.90
2019-05-16T13:30:28.292Z,53.50
2019-05-16T13:33:01.462Z,50.80
2019-05-16T13:35:36.967Z,51.40
2019-05-16T13:38:09.618Z,51.60
2019-05-16T13:40:42.880Z,51.40
2019-05-16T13:43:17.417Z,49.70
2019-05-16T13:45:49.770Z,46.50
2019-05-16T13:48:22.881Z,51.20
2019-05-16T13:51:10.975Z,48.00
2019-05-16T13:53:30.570Z,46.90
2019-05-16T13:56:07.097Z,46.40
2019-05-16T13:58:57.030Z,46.40
2019-05-16T14:01:30.421Z,45.90
2019-05-16T14:04:09.033Z,45.40
2019-05-16T14:06:41.683Z,46.40
2019-05-16T14:09:14.909Z,45.70
2019-05-16T14:11:48.197Z,44.50
2019-05-16T14:14:34.859Z,44.00
2019-05-16T14:16:55.215Z,42.90
2019-05-16T14:19:30.533Z,43.50
2019-05-16T14:22:04.441Z,43.90
2019-05-16T14:24:38.357Z,45.40
2019-05-16T14:27:12.076Z,46.50
2019-05-16T14:29:47.694Z,46.10
2019-05-16T14:32:20.393Z,48.30
2019-05-16T14:34:53.671Z,47.30
2019-05-16T14:37:26.963Z,46.80
2019-05-16T14:40:01.324Z,46.50
2019-05-16T14:42:34.670Z,47.20
2019-05-16T14:45:13.606Z,45.70
2019-05-16T14:47:47.478Z,46.90
2019-05-16T14:50:27.301Z,46.20
2019-05-16T14:52:58.519Z,47.50
2019-05-16T14:55:32.428Z,47.00
2019-05-16T14:58:07.344Z,46.30
2019-05-16T15:00:40.117Z,46.90
2019-05-16T15:03:12.305Z,47.10
2019-05-16T15:05:47.975Z,47.80
2019-05-16T15:08:19.996Z,46.80
2019-05-16T15:10:53.903Z,49.60
2019-05-16T15:13:28.008Z,49.30
2019-05-16T15:16:00.797Z,48.50
2019-05-16T15:18:32.989Z,48.70
2019-05-16T15:21:08.543Z,49.20
2019-05-16T15:23:41.597Z,47.00
2019-05-16T15:26:14.718Z,46.80
2019-05-16T15:28:47.989Z,45.20
2019-05-16T15:31:21.476Z,45.40
2019-05-16T15:33:53.663Z,44.80
2019-05-16T15:36:28.062Z,42.30
2019-05-16T15:39:00.556Z,43.00
2019-05-16T15:41:36.677Z,41.90
2019-05-16T15:44:08.947Z,39.70
2019-05-16T15:46:42.160Z,37.50
2019-05-16T15:49:17.078Z,39.70
2019-05-16T15:51:50.584Z,37.30
2019-05-16T15:54:28.474Z,38.00
2019-05-16T15:57:02.393Z,40.00
2019-05-16T15:59:38.449Z,38.80
2019-05-16T16:02:11.436Z,37.30
2019-05-16T16:04:44.422Z,34.40
2019-05-16T16:07:18.182Z,36.30
2019-05-16T16:09:50.825Z,36.40
2019-05-16T16:12:26.499Z,35.20
2019-05-16T16:14:57.619Z,33.10
2019-05-16T16:17:30.705Z,31.50
2019-05-16T16:20:03.877Z,31.70
2019-05-16T16:22:37.972Z,31.10
2019-05-16T16:25:12.306Z,32.40
2019-05-16T16:27:45.408Z,35.90
2019-05-16T16:30:20.735Z,34.60
2019-05-16T16:32:54.644Z,33.40
2019-05-16T16:35:28.367Z,34.80
2019-05-16T16:38:01.541Z,35.50
2019-05-16T16:40:37.539Z,34.60
2019-05-16T16:43:11.496Z,36.30
2019-05-16T16:45:44.032Z,37.00
2019-05-16T16:48:17.106Z,39.70
2019-05-16T16:50:50.453Z,40.70
2019-05-16T16:53:23.870Z,41.80
2019-05-16T16:55:56.997Z,41.70
2019-05-16T16:58:29.844Z,42.40
2019-05-16T17:01:03.011Z,41.20
2019-05-16T17:03:36.750Z,41.10
2019-05-16T17:06:09.719Z,42.10
2019-05-16T17:08:42.891Z,43.60
2019-05-16T17:11:16.799Z,44.60
2019-05-16T17:13:49.782Z,44.40
2019-05-16T17:16:26.836Z,45.90
2019-05-16T17:18:58.831Z,44.70
2019-05-16T17:21:32.119Z,41.00
2019-05-16T17:24:06.409Z,43.20
2019-05-16T17:26:39.012Z,44.40
2019-05-16T17:29:11.204Z,46.70
2019-05-16T17:31:42.058Z,47.10
2019-05-16T17:34:16.302Z,48.80
2019-05-16T17:36:48.804Z,49.80
2019-05-16T17:39:21.794Z,51.20
2019-05-16T17:41:57.911Z,51.10
2019-05-16T17:44:31.145Z,51.70
2019-05-16T17:47:07.045Z,52.80
2019-05-16T17:49:39.571Z,53.80
2019-05-16T17:52:13.621Z,53.90
2019-05-16T17:54:46.463Z,54.20
2019-05-16T17:57:20.063Z,54.30
2019-05-16T17:59:53.358Z,54.50
2019-05-16T18:02:26.962Z,54.40
2019-05-16T18:05:00.324Z,54.60
2019-05-16T18:07:36.395Z,54.90
2019-05-16T18:10:10.347Z,54.40
2019-05-16T18:12:47.666Z,54.00
2019-05-16T18:15:22.146Z,54.40
2019-05-16T18:17:57.475Z,55.00
2019-05-16T18:20:31.373Z,55.90
2019-05-16T18:23:07.129Z,57.30
2019-05-16T18:25:39.802Z,58.20
2019-05-16T18:28:13.403Z,57.70
2019-05-16T18:30:47.244Z,58.10
2019-05-16T18:33:20.603Z,58.70
2019-05-16T18:35:53.592Z,59.30
2019-05-16T18:38:27.498Z,59.20
2019-05-16T18:41:00.482Z,59.90
2019-05-16T18:43:36.442Z,59.90
2019-05-16T18:46:11.369Z,59.90
2019-05-16T18:48:46.996Z,61.20
2019-05-16T18:51:21.038Z,61.40
2019-05-16T18:53:56.886Z,59.70
2019-05-16T18:56:29.166Z,59.60
2019-05-16T18:59:14.116Z,59.80
2019-05-16T19:01:52.331Z,61.00
2019-05-16T19:05:23.685Z,62.20
2019-05-16T19:08:09.565Z,62.50
2019-05-16T19:11:27.457Z,63.50
2019-05-16T19:13:43.929Z,64.50
2019-05-16T19:16:17.706Z,65.40
2019-05-16T19:18:52.228Z,66.30
2019-05-16T19:21:27.057Z,65.90
2019-05-16T19:24:00.043Z,65.30
2019-05-16T19:26:37.373Z,65.70
2019-05-16T19:29:21.580Z,66.90
2019-05-16T19:31:57.570Z,67.10
2019-05-16T19:34:32.011Z,67.60
2019-05-16T19:37:08.935Z,68.20
2019-05-16T19:39:42.842Z,69.60
2019-05-16T19:42:17.115Z,71.10
2019-05-16T19:44:49.733Z,72.10
2019-05-16T19:47:34.957Z,73.00
2019-05-16T19:49:59.707Z,74.50
2019-05-16T19:52:33.614Z,75.30
2019-05-16T19:55:10.101Z,75.70
2019-05-16T19:57:43.880Z,75.40
2019-05-16T20:00:17.375Z,75.90
2019-05-16T20:02:50.771Z,75.60
2019-05-16T20:05:26.509Z,75.40
2019-05-16T20:07:57.807Z,74.00
2019-05-16T20:10:31.265Z,74.20
2019-05-16T20:13:04.558Z,74.30
2019-05-16T20:15:41.238Z,73.00
2019-05-16T20:18:12.988Z,71.80
2019-05-16T20:20:47.246Z,72.10
2019-05-16T20:23:20.187Z,70.00
2019-05-16T20:25:53.372Z,69.70
2019-05-16T20:28:26.705Z,69.30
2019-05-16T20:31:00.262Z,68.30
2019-05-16T20:33:33.052Z,68.90
2019-05-16T20:36:06.365Z,70.70
2019-05-16T20:38:41.481Z,71.70
2019-05-16T20:41:17.107Z,71.80
2019-05-16T20:43:50.525Z,72.10
2019-05-16T20:46:23.026Z,71.70
2019-05-16T20:48:58.727Z,71.20
2019-05-16T20:51:30.713Z,71.00
2019-05-16T20:54:06.933Z,70.40
2019-05-16T20:56:40.061Z,69.90
2019-05-16T20:59:13.968Z,70.10
2019-05-16T21:01:49.225Z,70.30
2019-05-16T21:04:22.397Z,71.00
2019-05-16T21:07:01.569Z,71.70
2019-05-16T21:09:29.291Z,73.00
2019-05-16T21:12:02.280Z,74.20
2019-05-16T21:14:35.400Z,74.20
2019-05-16T21:17:08.378Z,74.30
2019-05-16T21:19:41.541Z,73.00
2019-05-16T21:22:16.230Z,71.60
2019-05-16T21:24:49.973Z,73.80
2019-05-16T21:27:22.159Z,77.00
2019-05-16T21:29:56.672Z,77.00
2019-05-16T21:32:29.058Z,73.70
2019-05-16T21:35:02.961Z,73.20
2019-05-16T21:37:37.385Z,72.70
2019-05-16T21:40:11.263Z,70.90
2019-05-16T21:42:44.249Z,70.50
2019-05-16T21:45:17.691Z,71.20
2019-05-16T21:47:50.527Z,70.10
2019-05-16T21:50:24.128Z,70.70
2019-05-16T21:52:57.421Z,71.40
2019-05-16T21:55:31.021Z,72.10
2019-05-16T21:58:04.314Z,71.40
2019-05-16T22:00:47.460Z,71.10
2019-05-16T22:03:21.652Z,71.60
2019-05-16T22:05:57.597Z,71.70
2019-05-16T22:08:30.084Z,71.20
2019-05-16T22:11:06.565Z,71.40
2019-05-16T22:13:40.981Z,73.80
2019-05-16T22:16:17.368Z,72.30
2019-05-16T22:18:50.319Z,72.30
2019-05-16T22:21:24.225Z,72.90
2019-05-16T22:23:57.951Z,70.50
2019-05-16T22:26:31.119Z,69.30
2019-05-16T22:29:06.714Z,68.70
2019-05-16T22:31:39.548Z,67.80
2019-05-16T22:34:12.536Z,67.70
2019-05-16T22:36:49.203Z,66.80
2019-05-16T22:39:20.532Z,66.90
2019-05-16T22:41:53.334Z,66.60
2019-05-16T22:44:27.100Z,70.00
2019-05-16T22:47:00.227Z,72.30
2019-05-16T22:49:33.343Z,70.70
2019-05-16T22:52:07.121Z,72.90
2019-05-16T22:54:40.106Z,70.60
2019-05-16T22:57:13.216Z,70.70
2019-05-16T22:59:46.999Z,72.30
2019-05-16T23:02:20.599Z,72.50
2019-05-16T23:04:53.097Z,72.00
2019-05-16T23:07:27.443Z,72.20
2019-05-16T23:10:00.785Z,74.00
2019-05-16T23:12:36.938Z,74.60
2019-05-16T23:15:10.136Z,72.50
2019-05-16T23:17:43.859Z,72.70
2019-05-16T23:20:18.565Z,75.90
2019-05-16T23:22:51.553Z,74.00
2019-05-16T23:25:24.660Z,71.90
2019-05-16T23:27:57.648Z,71.60
2019-05-16T23:30:30.815Z,71.20
2019-05-16T23:33:03.801Z,71.60
2019-05-16T23:35:37.837Z,71.70
2019-05-16T23:38:19.486Z,72.50
2019-05-16T23:40:46.819Z,73.60
2019-05-16T23:43:19.262Z,74.40
2019-05-16T23:45:52.232Z,73.80
2019-05-16T23:48:25.222Z,74.40
2019-05-16T23:50:58.387Z,74.10
2019-05-16T23:53:31.375Z,73.80
2019-05-16T23:56:07.186Z,73.90
2019-05-16T23:58:51.480Z,74.40
